createdAt,value
2022-09-23T00:00:24.561Z,12.10
2022-09-23T00:03:35.346Z,9.80
2022-09-23T00:06:24.515Z,11.60
2022-09-23T00:09:46.507Z,11.10
2022-09-23T00:12:37.367Z,11.90
2022-09-23T00:15:14.400Z,12.80
2022-09-23T00:20:37.979Z,13.10
2022-09-23T00:23:10.714Z,14.20
2022-09-23T00:25:43.865Z,15.00
2022-09-23T00:28:14.482Z,14.60
2022-09-23T00:30:44.883Z,12.30
2022-09-23T00:33:15.160Z,13.60
2022-09-23T00:35:43.529Z,11.00
2022-09-23T00:38:12.034Z,11.40
2022-09-23T00:40:49.769Z,12.00
2022-09-23T00:43:22.729Z,11.20
2022-09-23T00:46:05.345Z,12.40
2022-09-23T00:48:47.374Z,9.10
2022-09-23T00:51:19.843Z,9.20
2022-09-23T00:56:21.008Z,6.80
2022-09-23T00:58:50.643Z,12.00
2022-09-23T01:01:19.676Z,7.50
2022-09-23T01:03:50.476Z,9.20
2022-09-23T01:06:18.541Z,7.20
2022-09-23T01:08:48.565Z,7.90
2022-09-23T01:11:21.325Z,11.30
2022-09-23T01:14:17.140Z,7.70
2022-09-23T01:16:56.656Z,6.00
2022-09-23T01:19:37.397Z,10.20
2022-09-23T01:22:16.773Z,5.60
2022-09-23T01:25:16.741Z,6.80
2022-09-23T01:28:21.246Z,7.90
2022-09-23T01:31:08.134Z,5.70
2022-09-23T01:33:47.181Z,7.10
2022-09-23T01:36:37.058Z,4.60
2022-09-23T01:39:17.126Z,6.30
2022-09-23T01:42:22.242Z,4.80
2022-09-23T01:44:56.645Z,5.40
2022-09-23T01:47:36.144Z,5.80
2022-09-23T01:50:51.201Z,6.00
2022-09-23T01:53:24.888Z,5.70
2022-09-23T01:55:57.961Z,5.80
2022-09-23T01:58:33.822Z,5.40
2022-09-23T02:01:09.904Z,6.80
2022-09-23T02:03:53.084Z,5.30
2022-09-23T02:06:21.992Z,7.00
2022-09-23T02:09:22.201Z,5.60
2022-09-23T02:11:52.642Z,6.00
2022-09-23T02:14:24.597Z,6.40
2022-09-23T02:16:58.253Z,6.20
2022-09-23T02:19:36.282Z,4.90
2022-09-23T02:22:38.247Z,6.20
2022-09-23T02:25:07.874Z,4.90
2022-09-23T02:27:51.919Z,4.30
2022-09-23T02:30:34.843Z,5.80
2022-09-23T02:33:05.061Z,6.20
2022-09-23T02:35:43.518Z,4.40
2022-09-23T02:38:26.821Z,5.80
2022-09-23T02:41:09.651Z,4.10
2022-09-23T02:44:00.066Z,4.70
2022-09-23T02:46:30.315Z,4.90
2022-09-23T02:49:11.233Z,4.80
2022-09-23T02:51:41.040Z,5.00
2022-09-23T02:54:14.976Z,4.80
2022-09-23T02:56:43.389Z,5.00
2022-09-23T02:59:19.458Z,6.40
2022-09-23T03:02:00.539Z,4.40
2022-09-23T03:04:50.451Z,4.60
2022-09-23T03:07:23.817Z,4.90
2022-09-23T03:10:10.836Z,6.50
2022-09-23T03:12:46.111Z,5.40
2022-09-23T03:15:26.415Z,3.90
2022-09-23T03:18:01.544Z,4.40
2022-09-23T03:20:58.360Z,5.40
2022-09-23T03:23:33.680Z,5.20
2022-09-23T03:26:07.463Z,6.20
2022-09-23T03:28:42.090Z,5.30
2022-09-23T03:31:12.325Z,4.50
2022-09-23T03:34:01.757Z,4.20
2022-09-23T03:36:51.625Z,6.40
2022-09-23T03:39:47.977Z,4.80
2022-09-23T03:42:27.110Z,4.50
2022-09-23T03:44:57.955Z,4.40
2022-09-23T03:47:28.906Z,5.70
2022-09-23T03:49:58.206Z,4.70
2022-09-23T03:52:26.878Z,5.20
2022-09-23T03:54:57.921Z,4.50
2022-09-23T03:57:26.114Z,7.60
2022-09-23T03:59:54.139Z,7.00
2022-09-23T04:02:22.458Z,5.30
2022-09-23T04:04:51.548Z,6.20
2022-09-23T04:07:19.627Z,7.30
2022-09-23T04:09:47.862Z,5.70
2022-09-23T04:12:16.645Z,5.30
2022-09-23T04:14:45.430Z,6.00
2022-09-23T04:17:13.507Z,7.60
2022-09-23T04:19:45.179Z,7.30
2022-09-23T04:22:15.906Z,6.60
2022-09-23T04:24:44.684Z,8.30
2022-09-23T04:27:12.872Z,5.20
2022-09-23T04:29:43.651Z,6.50
2022-09-23T04:32:11.882Z,5.30
2022-09-23T04:34:41.286Z,6.20
2022-09-23T04:37:10.378Z,6.80
2022-09-23T04:39:38.321Z,8.90
2022-09-23T04:42:07.657Z,6.90
2022-09-23T04:44:35.910Z,7.70
2022-09-23T04:47:05.569Z,6.50
2022-09-23T04:49:35.932Z,5.80
2022-09-23T04:52:08.371Z,7.50
2022-09-23T04:54:36.984Z,6.40
2022-09-23T04:57:08.334Z,6.00
2022-09-23T04:59:38.760Z,9.00
2022-09-23T05:04:41.488Z,10.50
2022-09-23T05:07:10.666Z,7.50
2022-09-23T05:09:43.739Z,7.40
2022-09-23T05:12:12.226Z,7.50
2022-09-23T05:14:50.169Z,5.50
2022-09-23T05:17:21.994Z,7.10
2022-09-23T05:19:51.714Z,10.10
2022-09-23T05:22:22.059Z,8.10
2022-09-23T05:24:52.042Z,9.60
2022-09-23T05:27:22.582Z,6.10
2022-09-23T05:29:56.281Z,6.50
2022-09-23T05:32:33.456Z,5.50
2022-09-23T05:35:04.813Z,5.90
2022-09-23T05:37:35.146Z,11.00
2022-09-23T05:40:06.163Z,11.50
2022-09-23T05:42:34.978Z,10.30
2022-09-23T05:45:04.667Z,9.30
2022-09-23T05:47:34.619Z,11.30
2022-09-23T05:50:12.326Z,14.20
2022-09-23T05:52:44.857Z,11.20
2022-09-23T05:55:15.573Z,12.50
2022-09-23T05:57:56.983Z,11.40
2022-09-23T06:00:28.496Z,10.50
2022-09-23T06:03:06.235Z,11.90
2022-09-23T06:05:40.526Z,12.70
2022-09-23T06:08:11.805Z,13.00
2022-09-23T06:10:45.478Z,14.90
2022-09-23T06:13:17.970Z,12.60
2022-09-23T06:15:51.514Z,15.40
2022-09-23T06:18:19.722Z,11.90
2022-09-23T06:20:49.162Z,12.40
2022-09-23T06:23:17.002Z,13.40
2022-09-23T06:28:37.834Z,10.80
2022-09-23T06:31:14.290Z,12.80
2022-09-23T06:33:46.052Z,16.50
2022-09-23T06:36:35.953Z,10.20
2022-09-23T06:39:06.955Z,13.60
2022-09-23T06:41:35.722Z,13.70
2022-09-23T06:44:08.921Z,10.40
2022-09-23T06:46:37.029Z,12.40
2022-09-23T06:49:06.959Z,10.30
2022-09-23T06:51:34.989Z,9.40
2022-09-23T06:54:09.122Z,10.80
2022-09-23T06:56:39.505Z,10.20
2022-09-23T06:59:13.141Z,10.10
2022-09-23T07:01:45.319Z,12.30
2022-09-23T07:06:42.654Z,9.40
2022-09-23T07:09:14.349Z,10.20
2022-09-23T07:11:42.393Z,11.00
2022-09-23T07:14:14.180Z,16.40
2022-09-23T07:16:42.731Z,11.90
2022-09-23T07:19:12.285Z,11.40
2022-09-23T07:21:41.634Z,11.10
2022-09-23T07:24:09.659Z,11.70
2022-09-23T07:26:44.894Z,11.70
2022-09-23T07:29:14.648Z,11.60
2022-09-23T07:31:43.350Z,12.00
2022-09-23T07:34:11.753Z,12.40
2022-09-23T07:36:43.058Z,9.60
2022-09-23T07:39:13.773Z,10.00
2022-09-23T07:41:44.620Z,9.10
2022-09-23T07:44:12.917Z,10.70
2022-09-23T07:46:44.811Z,8.50
2022-09-23T07:49:13.677Z,7.30
2022-09-23T07:51:45.970Z,8.60
2022-09-23T07:54:16.384Z,8.70
2022-09-23T07:56:45.140Z,6.60
2022-09-23T07:59:19.347Z,10.70
2022-09-23T08:01:50.631Z,9.60
2022-09-23T08:04:22.126Z,11.70
2022-09-23T08:06:52.281Z,10.30
2022-09-23T08:09:22.093Z,8.10
2022-09-23T08:11:51.066Z,12.80
2022-09-23T08:14:19.649Z,9.20
2022-09-23T08:16:47.746Z,8.70
2022-09-23T08:19:16.513Z,8.90
2022-09-23T08:21:49.398Z,9.10
2022-09-23T08:24:21.021Z,7.50
2022-09-23T08:26:53.325Z,9.40
2022-09-23T08:29:22.935Z,9.40
2022-09-23T08:31:54.183Z,10.60
2022-09-23T08:34:24.022Z,7.50
2022-09-23T08:36:52.490Z,8.40
2022-09-23T08:39:21.687Z,8.70
2022-09-23T08:42:02.459Z,8.00
2022-09-23T08:45:03.170Z,9.10
2022-09-23T08:48:10.823Z,7.40
2022-09-23T08:50:50.719Z,6.00
2022-09-23T08:53:29.963Z,8.10
2022-09-23T08:56:18.408Z,7.00
2022-09-23T08:59:05.510Z,8.00
2022-09-23T09:01:41.869Z,8.20
2022-09-23T09:04:42.401Z,9.40
2022-09-23T09:07:35.172Z,7.20
2022-09-23T09:10:18.683Z,6.40
2022-09-23T09:13:00.476Z,6.10
2022-09-23T09:15:31.162Z,7.20
2022-09-23T09:18:25.608Z,6.10
2022-09-23T09:21:08.520Z,5.60
2022-09-23T09:23:46.482Z,4.90
2022-09-23T09:26:23.004Z,8.70
2022-09-23T09:29:11.413Z,5.50
2022-09-23T09:31:51.304Z,4.70
2022-09-23T09:34:45.671Z,4.10
2022-09-23T09:37:38.418Z,4.10
2022-09-23T09:40:12.921Z,6.10
2022-09-23T09:42:50.027Z,3.50
2022-09-23T09:45:33.530Z,4.80
2022-09-23T09:54:18.213Z,3.10
2022-09-23T09:59:25.715Z,5.30
2022-09-23T10:02:32.730Z,2.80
2022-09-23T10:05:03.241Z,3.60
2022-09-23T10:07:32.759Z,12.90
2022-09-23T10:10:32.292Z,3.40
2022-09-23T10:13:15.051Z,5.50
2022-09-23T10:15:45.021Z,5.60
2022-09-23T10:18:24.730Z,6.40
2022-09-23T10:20:52.599Z,2.30
2022-09-23T10:23:24.371Z,3.30
2022-09-23T10:26:01.141Z,2.50
2022-09-23T10:28:50.357Z,6.60
2022-09-23T10:31:35.642Z,1.60
2022-09-23T10:34:24.706Z,1.10
2022-09-23T10:37:25.229Z,2.20
2022-09-23T10:40:11.844Z,1.80
2022-09-23T10:43:13.307Z,2.50
2022-09-23T10:46:06.629Z,2.10
2022-09-23T10:48:55.966Z,2.90
2022-09-23T10:51:51.607Z,4.00
2022-09-23T10:54:44.253Z,3.20
2022-09-23T10:57:41.680Z,1.50
2022-09-23T11:00:24.962Z,2.20
2022-09-23T11:03:12.902Z,2.80
2022-09-23T11:06:06.777Z,1.60
2022-09-23T11:08:53.699Z,1.30
2022-09-23T11:11:48.901Z,1.80
2022-09-23T11:14:41.030Z,1.40
2022-09-23T11:17:33.589Z,2.20
2022-09-23T11:20:31.206Z,2.40
2022-09-23T11:23:05.697Z,2.40
2022-09-23T11:25:47.157Z,1.60
2022-09-23T11:28:30.184Z,2.10
2022-09-23T11:31:05.720Z,1.30
2022-09-23T11:33:42.505Z,3.70
2022-09-23T11:36:28.530Z,1.80
2022-09-23T11:38:57.253Z,1.40
2022-09-23T11:41:38.547Z,2.70
2022-09-23T11:44:12.591Z,1.50
2022-09-23T11:46:49.419Z,2.10
2022-09-23T11:49:17.215Z,1.30
2022-09-23T11:52:14.403Z,1.90
2022-09-23T11:55:04.673Z,1.90
2022-09-23T11:57:52.925Z,2.00
2022-09-23T12:00:38.435Z,1.30
2022-09-23T12:03:23.545Z,0.90
2022-09-23T12:05:56.690Z,3.70
2022-09-23T12:08:32.353Z,0.80
2022-09-23T12:11:20.301Z,1.20
2022-09-23T12:14:16.422Z,1.20
2022-09-23T12:16:48.709Z,0.70
2022-09-23T12:19:55.481Z,0.90
2022-09-23T12:22:26.652Z,1.10
2022-09-23T12:24:56.881Z,1.20
2022-09-23T12:27:40.234Z,2.00
2022-09-23T12:30:15.186Z,1.40
2022-09-23T12:32:43.462Z,1.20
2022-09-23T12:35:26.957Z,1.30
2022-09-23T12:37:54.834Z,1.10
2022-09-23T12:40:31.089Z,1.20
2022-09-23T12:43:01.205Z,1.00
2022-09-23T12:45:34.830Z,1.70
2022-09-23T12:48:43.745Z,1.00
2022-09-23T12:51:16.351Z,1.00
2022-09-23T12:53:59.766Z,0.70
2022-09-23T12:56:38.625Z,0.80
2022-09-23T12:59:09.449Z,0.90
2022-09-23T13:01:38.047Z,1.30
2022-09-23T13:04:24.616Z,0.80
2022-09-23T13:07:08.836Z,2.20
2022-09-23T13:09:41.576Z,1.10
2022-09-23T13:12:18.816Z,2.20
2022-09-23T13:14:49.746Z,1.10
2022-09-23T13:17:29.817Z,0.80
2022-09-23T13:20:02.756Z,1.60
2022-09-23T13:23:01.795Z,1.20
2022-09-23T13:25:35.058Z,0.70
2022-09-23T13:28:03.834Z,1.40
2022-09-23T13:30:31.646Z,1.40
2022-09-23T13:33:18.833Z,1.50
2022-09-23T13:35:52.403Z,2.80
2022-09-23T13:38:26.214Z,1.20
2022-09-23T13:40:57.599Z,1.30
2022-09-23T13:43:31.839Z,1.00
2022-09-23T13:46:01.016Z,0.70
2022-09-23T13:48:28.885Z,1.20
2022-09-23T13:50:56.918Z,2.00
2022-09-23T13:53:29.262Z,0.90
2022-09-23T13:56:15.921Z,1.10
2022-09-23T13:58:43.720Z,1.90
2022-09-23T14:01:33.778Z,0.60
2022-09-23T14:04:04.904Z,1.90
2022-09-23T14:06:36.039Z,0.60
2022-09-23T14:09:03.901Z,1.60
2022-09-23T14:11:35.407Z,2.40
2022-09-23T14:14:07.416Z,1.20
2022-09-23T14:16:38.154Z,1.00
2022-09-23T14:19:08.086Z,0.80
2022-09-23T14:21:37.774Z,1.00
2022-09-23T14:24:41.467Z,1.20
2022-09-23T14:27:19.043Z,0.80
2022-09-23T14:29:48.222Z,0.80
2022-09-23T14:32:21.247Z,2.30
2022-09-23T14:34:59.503Z,0.90
2022-09-23T14:38:10.612Z,0.80
2022-09-23T14:40:51.344Z,3.50
2022-09-23T14:43:26.199Z,2.30
2022-09-23T14:45:55.938Z,1.50
2022-09-23T14:48:27.360Z,3.70
2022-09-23T14:51:06.624Z,4.80
2022-09-23T14:53:34.444Z,1.40
2022-09-23T14:56:08.473Z,5.60
2022-09-23T14:58:54.734Z,0.90
2022-09-23T15:01:27.728Z,2.80
2022-09-23T15:03:56.151Z,1.20
2022-09-23T15:06:24.791Z,1.80
2022-09-23T15:08:53.398Z,3.60
2022-09-23T15:11:25.272Z,1.40
2022-09-23T15:16:28.006Z,2.20
2022-09-23T15:18:57.870Z,1.20
2022-09-23T15:21:41.036Z,1.20
2022-09-23T15:24:41.394Z,1.00
2022-09-23T15:27:29.339Z,4.00
2022-09-23T15:30:17.082Z,2.20
2022-09-23T15:32:45.798Z,2.20
2022-09-23T15:35:19.150Z,7.00
2022-09-23T15:37:49.275Z,2.60
2022-09-23T15:40:22.659Z,2.50
2022-09-23T15:42:53.793Z,2.30
2022-09-23T15:45:29.308Z,2.20
2022-09-23T15:48:00.984Z,1.30
2022-09-23T15:50:30.235Z,2.40
2022-09-23T15:52:59.475Z,2.20
2022-09-23T15:55:27.494Z,1.40
2022-09-23T15:57:57.170Z,1.10
2022-09-23T16:00:25.362Z,3.70
2022-09-23T16:02:54.072Z,1.90
2022-09-23T16:05:37.002Z,0.90
2022-09-23T16:08:08.937Z,1.50
2022-09-23T16:10:37.805Z,1.40
2022-09-23T16:13:08.877Z,1.70
2022-09-23T16:15:39.105Z,2.90
2022-09-23T16:18:08.627Z,1.70
2022-09-23T16:20:44.723Z,1.20
2022-09-23T16:23:34.463Z,7.10
2022-09-23T16:26:06.330Z,5.70
2022-09-23T16:28:34.493Z,2.70
2022-09-23T16:31:03.095Z,2.60
2022-09-23T16:33:31.007Z,6.60
2022-09-23T16:36:00.897Z,8.40
2022-09-23T16:38:29.558Z,7.60
2022-09-23T16:41:00.176Z,8.90
2022-09-23T16:43:31.719Z,5.60
2022-09-23T16:45:59.644Z,6.50
2022-09-23T16:48:27.488Z,5.70
2022-09-23T16:50:55.277Z,5.40
2022-09-23T16:53:23.567Z,7.80
2022-09-23T16:55:53.474Z,8.60
2022-09-23T16:58:21.317Z,14.80
2022-09-23T17:01:07.921Z,12.10
2022-09-23T17:03:41.972Z,10.50
2022-09-23T17:06:13.517Z,8.30
2022-09-23T17:08:42.827Z,9.10
2022-09-23T17:11:11.133Z,8.50
2022-09-23T17:13:41.237Z,7.60
2022-09-23T17:16:11.815Z,7.30
2022-09-23T17:18:39.682Z,9.10
2022-09-23T17:21:08.598Z,7.10
2022-09-23T17:23:37.176Z,8.80
2022-09-23T17:26:05.508Z,4.70
2022-09-23T17:28:33.488Z,8.70
2022-09-23T17:31:03.822Z,7.30
2022-09-23T17:33:35.239Z,7.00
2022-09-23T17:36:07.788Z,6.00
2022-09-23T17:38:36.110Z,8.30
2022-09-23T17:41:04.857Z,6.80
2022-09-23T17:43:33.536Z,8.40
2022-09-23T17:46:06.382Z,8.10
2022-09-23T17:48:36.003Z,7.30
2022-09-23T17:51:06.451Z,7.90
2022-09-23T17:53:37.079Z,6.60
2022-09-23T17:56:08.292Z,6.90
2022-09-23T17:58:37.524Z,9.30
2022-09-23T18:01:12.475Z,8.40
2022-09-23T18:03:43.479Z,7.00
2022-09-23T18:06:19.550Z,25.90
2022-09-23T18:08:49.286Z,12.90
2022-09-23T18:11:25.413Z,8.70
2022-09-23T18:14:01.286Z,9.70
2022-09-23T18:16:31.256Z,8.80
2022-09-23T18:19:00.710Z,8.90
2022-09-23T18:21:31.589Z,8.90
2022-09-23T18:24:28.057Z,7.30
2022-09-23T18:26:49.783Z,6.70
2022-09-23T18:29:18.616Z,9.10
2022-09-23T18:31:51.112Z,8.70
2022-09-23T18:34:20.448Z,9.70
2022-09-23T18:36:48.409Z,9.00
2022-09-23T18:39:16.738Z,5.10
2022-09-23T18:41:45.173Z,4.70
2022-09-23T18:44:13.090Z,8.30
2022-09-23T18:46:40.873Z,8.50
2022-09-23T18:49:27.751Z,6.40
2022-09-23T18:51:57.436Z,7.10
2022-09-23T18:54:28.471Z,4.50
2022-09-23T18:56:56.800Z,7.00
2022-09-23T18:59:28.024Z,6.70
2022-09-23T19:02:00.479Z,9.20
2022-09-23T19:04:29.098Z,9.60
2022-09-23T19:06:57.984Z,7.70
2022-09-23T19:09:26.272Z,8.80
2022-09-23T19:11:54.372Z,7.10
2022-09-23T19:14:22.320Z,20.20
2022-09-23T19:16:50.903Z,9.20
2022-09-23T19:19:18.837Z,9.20
2022-09-23T19:21:46.698Z,9.60
2022-09-23T19:24:19.853Z,9.30
2022-09-23T19:26:48.751Z,9.60
2022-09-23T19:29:22.019Z,9.70
2022-09-23T19:31:51.054Z,8.00
2022-09-23T19:34:23.771Z,9.60
2022-09-23T19:36:53.028Z,9.70
2022-09-23T19:39:23.452Z,9.30
2022-09-23T19:41:52.473Z,10.90
2022-09-23T19:44:20.545Z,12.40
2022-09-23T19:46:55.010Z,10.50
2022-09-23T19:49:25.886Z,8.90
2022-09-23T19:51:55.969Z,10.70
2022-09-23T19:54:27.470Z,10.00
2022-09-23T19:56:56.073Z,14.90
2022-09-23T19:59:26.555Z,16.30
2022-09-23T20:01:54.955Z,9.40
2022-09-23T20:04:23.516Z,13.50
2022-09-23T20:06:52.356Z,10.70
2022-09-23T20:09:20.811Z,12.80
2022-09-23T20:11:48.804Z,10.10
2022-09-23T20:14:17.933Z,12.50
2022-09-23T20:16:46.231Z,11.10
2022-09-23T20:19:14.281Z,10.10
2022-09-23T20:21:42.090Z,11.40
2022-09-23T20:24:11.929Z,9.10
2022-09-23T20:26:58.169Z,10.10
2022-09-23T20:29:26.449Z,12.60
2022-09-23T20:31:54.423Z,12.70
2022-09-23T20:34:22.565Z,12.90
2022-09-23T20:36:50.651Z,9.50
2022-09-23T20:39:18.434Z,14.20
2022-09-23T20:41:48.156Z,12.60
2022-09-23T20:44:16.105Z,13.50
2022-09-23T20:46:48.773Z,15.20
2022-09-23T20:49:17.688Z,15.90
2022-09-23T20:51:48.240Z,14.10
2022-09-23T20:54:21.590Z,13.30
2022-09-23T20:56:49.451Z,10.70
2022-09-23T20:59:18.502Z,9.90
2022-09-23T21:01:46.580Z,11.20
2022-09-23T21:04:14.521Z,11.40
2022-09-23T21:06:42.263Z,10.80
2022-09-23T21:09:10.045Z,8.80
2022-09-23T21:11:38.188Z,10.50
2022-09-23T21:14:06.072Z,8.50
2022-09-23T21:16:34.073Z,11.30
2022-09-23T21:19:03.349Z,12.10
2022-09-23T21:21:31.203Z,12.50
2022-09-23T21:24:17.167Z,10.80
2022-09-23T21:26:47.777Z,11.60
2022-09-23T21:29:16.214Z,11.30
2022-09-23T21:31:44.195Z,12.80
2022-09-23T21:34:12.682Z,11.60
2022-09-23T21:36:43.103Z,11.80
2022-09-23T21:39:11.507Z,10.20
2022-09-23T21:41:40.025Z,15.00
2022-09-23T21:44:08.515Z,12.40
2022-09-23T21:46:36.813Z,9.90
2022-09-23T21:49:05.334Z,13.40
2022-09-23T21:51:40.796Z,10.80
2022-09-23T21:54:15.522Z,12.10
2022-09-23T21:56:44.000Z,12.50
2022-09-23T21:59:12.031Z,12.90
2022-09-23T22:01:43.553Z,12.10
2022-09-23T22:04:16.990Z,12.90
2022-09-23T22:06:45.716Z,11.60
2022-09-23T22:09:16.899Z,15.90
2022-09-23T22:12:03.902Z,9.20
2022-09-23T22:14:32.011Z,10.90
2022-09-23T22:17:01.356Z,11.00
2022-09-23T22:19:35.462Z,13.50
2022-09-23T22:22:13.291Z,13.60
2022-09-23T22:24:44.954Z,11.70
2022-09-23T22:27:14.417Z,15.60
2022-09-23T22:30:00.795Z,11.70
2022-09-23T22:32:46.161Z,12.30
2022-09-23T22:35:19.176Z,12.00
2022-09-23T22:37:48.245Z,11.70
2022-09-23T22:40:16.366Z,17.10
2022-09-23T22:42:44.488Z,11.50
2022-09-23T22:45:13.435Z,15.30
2022-09-23T22:47:45.149Z,13.20
2022-09-23T22:50:14.687Z,12.80
2022-09-23T22:52:43.197Z,14.20
2022-09-23T22:55:11.741Z,12.30
2022-09-23T22:57:39.621Z,12.10
2022-09-23T23:01:43.644Z,14.10
2022-09-23T23:04:13.255Z,11.50
2022-09-23T23:09:16.893Z,14.10
2022-09-23T23:11:47.427Z,10.10
2022-09-23T23:14:18.056Z,15.30
2022-09-23T23:16:46.580Z,12.70
2022-09-23T23:19:17.523Z,12.60
2022-09-23T23:21:48.815Z,15.20
2022-09-23T23:24:23.234Z,14.60
2022-09-23T23:26:53.564Z,13.20
2022-09-23T23:29:24.145Z,19.50
2022-09-23T23:31:52.612Z,18.00
2022-09-23T23:34:21.586Z,18.00
2022-09-23T23:36:54.738Z,16.00
2022-09-23T23:39:25.398Z,12.80
2022-09-23T23:41:59.404Z,14.90
2022-09-23T23:44:27.792Z,14.20
2022-09-23T23:46:56.017Z,12.00
2022-09-23T23:49:28.797Z,16.80
2022-09-23T23:51:59.280Z,13.00
2022-09-23T23:54:27.548Z,15.60
2022-09-23T23:56:55.748Z,15.40
2022-09-23T23:59:27.670Z,15.60
